Terminal Aerodrome Forecast
Issued by NWS

Current Version | Previous Version | Graphics & Text | Print | Product List | Glossary On
Versions: 1 2 3 4 5 6 7 8 9 10 11 12 13 14 15 16 17 18 19 20 21 22 23 24 25
000
FTUS41 KILN 172000 AAA
TAFLUK
TAF AMD
KLUK 172011Z 1720/1818 25012G20KT P6SM SCT040 BKN250
      TEMPO 1723/1801 OVC040
     FM180100 28008KT P6SM OVC035
     FM181300 31010KT P6SM OVC025=

USA.gov is the U.S. government's official web portal to all federal, state and local government web resources and services.